Accueil
METAR-TAF:

METAR-TAF

Aéroports :

Aéroport de Vitoria-Gasteiz

Vitoria, Espagne

latitude: 42-53N, longitude: 002-43W, altitude: 513 m

Observation

Le bulletin a été fait il y a 13 minutes, à 15:00 UTC
Vent 8 kt de nord-est
Température 7°C
Humidité 49%
Pression 1029 hPa
Visibilité 10 km ou plus
pas de nuages en-dessous de 1500 mètres et pas de cumulonimbus.

METAR: LEVT 221500Z 04008KT CAVOK 07/M03 Q1029

Heure: 16:13 (15:13 UTC)

Prévision

Le bulletin a été fait il y a 4 heures et 13 minutes, à 11:00 UTC
Prévision valable du 22 à 12 UTC au 23 à 12 UTC
Vent 4 kt de sud/sud-ouest
Visibilité 10 km ou plus
Nuages épars à une hauteur de 2500 ft
Temporairement
du 22 à 12 UTC au 22 à 18 UTC
Vent 10 kt de nord/nord-est

TAF: LEVT 221100Z 2212/2312 20004KT 9999 SCT025 TX07/2214Z TNM05/2306Z TEMPO 2212/2218 03010KT

Observations et prévisions météorologiques de plus de 4000 aéroports (messages METAR et TAF).

Les stations disponibles sont représentées par des disques jaunes et rouges sur la carte.

Passer la souris dessus pour voir le nom de la station.

Cliquer dessus pour voir les observations et prévisions météorologiques.

Pour changer de carte: cliquez sur les boutons verts avec une croix noire pour zoomer, sur le bouton vert avec un tiret pour effectuer un zoom arrière, ou sur les flèches vertes pour les cartes adjacentes.


METAR-TAF: